<?xml version="1.0" encoding="utf-8"?>
<gpx xmlns:xsi="http://www.w3.org/2001/XMLSchema-instance" xmlns:xsd="http://www.w3.org/2001/XMLSchema" version="1.1" creator="Shapelink.com" xmlns="http://www.topografix.com/GPX/1/1" xmlns:gpxtpx="http://www.garmin.com/xmlschemas/TrackPointExtension/v1">
  <metadata>
    <name>Övrigt 1.87 km, 2019-06-05</name>
    <desc></desc>
    <author><name>Marian Moron</name></author> 
    <time>2019-06-05T20:07:35Z</time>
  </metadata>
  <trk>
    <name>Övrigt 1.87 km, 2019-06-05</name>
    <trkseg>
      <trkpt lat="51.229779521252" lon="4.457770435967">
        <ele>18.4</ele>
        <time>2019-06-05T20:07:35Z</time>
      </trkpt>
      <trkpt lat="51.229823777684" lon="4.457892644069">
        <ele>13.8</ele>
        <time>2019-06-05T20:07:37Z</time>
      </trkpt>
      <trkpt lat="51.229948081261" lon="4.458435036818">
        <ele>10.6</ele>
        <time>2019-06-05T20:08:00Z</time>
      </trkpt>
      <trkpt lat="51.229987140915" lon="4.458858238949">
        <ele>5.4</ele>
        <time>2019-06-05T20:08:51Z</time>
      </trkpt>
      <trkpt lat="51.230081940204" lon="4.458997797584">
        <ele>2.6</ele>
        <time>2019-06-05T20:09:13Z</time>
      </trkpt>
      <trkpt lat="51.230125526084" lon="4.458982877802">
        <ele>2.4</ele>
        <time>2019-06-05T20:09:18Z</time>
      </trkpt>
      <trkpt lat="51.230385281165" lon="4.459201645392">
        <ele>1.8</ele>
        <time>2019-06-05T20:09:54Z</time>
      </trkpt>
      <trkpt lat="51.230427693579" lon="4.459294768301">
        <ele>1.4</ele>
        <time>2019-06-05T20:10:01Z</time>
      </trkpt>
      <trkpt lat="51.23046113736" lon="4.459387555934">
        <ele>2</ele>
        <time>2019-06-05T20:10:07Z</time>
      </trkpt>
      <trkpt lat="51.230452001089" lon="4.4596653321">
        <ele>2.8</ele>
        <time>2019-06-05T20:10:39Z</time>
      </trkpt>
      <trkpt lat="51.230503633593" lon="4.459842944561">
        <ele>2.6</ele>
        <time>2019-06-05T20:10:49Z</time>
      </trkpt>
      <trkpt lat="51.230554763183" lon="4.459844369484">
        <ele>2.6</ele>
        <time>2019-06-05T20:10:53Z</time>
      </trkpt>
      <trkpt lat="51.23077210585" lon="4.459700116985">
        <ele>2.4</ele>
        <time>2019-06-05T20:11:12Z</time>
      </trkpt>
      <trkpt lat="51.230826420562" lon="4.459676144751">
        <ele>2.6</ele>
        <time>2019-06-05T20:11:20Z</time>
      </trkpt>
      <trkpt lat="51.230986263395" lon="4.459625769532">
        <ele>3.6</ele>
        <time>2019-06-05T20:11:31Z</time>
      </trkpt>
      <trkpt lat="51.231048121817" lon="4.459597187253">
        <ele>5</ele>
        <time>2019-06-05T20:11:40Z</time>
      </trkpt>
      <trkpt lat="51.2311451004" lon="4.459574556123">
        <ele>6.6</ele>
        <time>2019-06-05T20:11:50Z</time>
      </trkpt>
      <trkpt lat="51.231595962801" lon="4.459613112863">
        <ele>3.4</ele>
        <time>2019-06-05T20:12:24Z</time>
      </trkpt>
      <trkpt lat="51.23168657114" lon="4.459566760956">
        <ele>2.8</ele>
        <time>2019-06-05T20:12:37Z</time>
      </trkpt>
      <trkpt lat="51.231764438991" lon="4.459533652451">
        <ele>2.6</ele>
        <time>2019-06-05T20:12:43Z</time>
      </trkpt>
      <trkpt lat="51.231784723189" lon="4.459563492015">
        <ele>2.2</ele>
        <time>2019-06-05T20:12:46Z</time>
      </trkpt>
      <trkpt lat="51.231826129775" lon="4.459784438899">
        <ele>1.2</ele>
        <time>2019-06-05T20:13:08Z</time>
      </trkpt>
      <trkpt lat="51.231838870263" lon="4.459959788247">
        <ele>2.2</ele>
        <time>2019-06-05T20:13:21Z</time>
      </trkpt>
      <trkpt lat="51.231873990424" lon="4.460059365219">
        <ele>6.4</ele>
        <time>2019-06-05T20:13:46Z</time>
      </trkpt>
      <trkpt lat="51.231923275996" lon="4.460310486943">
        <ele>9.2</ele>
        <time>2019-06-05T20:14:11Z</time>
      </trkpt>
      <trkpt lat="51.232000976209" lon="4.460603350529">
        <ele>6</ele>
        <time>2019-06-05T20:14:29Z</time>
      </trkpt>
      <trkpt lat="51.232016566543" lon="4.460665208951">
        <ele>4.8</ele>
        <time>2019-06-05T20:14:32Z</time>
      </trkpt>
      <trkpt lat="51.232085717218" lon="4.4611908379">
        <ele>8.2</ele>
        <time>2019-06-05T20:15:00Z</time>
      </trkpt>
      <trkpt lat="51.232134667514" lon="4.461634072772">
        <ele>7.4</ele>
        <time>2019-06-05T20:15:22Z</time>
      </trkpt>
      <trkpt lat="51.232159813214" lon="4.461854181466">
        <ele>10.2</ele>
        <time>2019-06-05T20:15:37Z</time>
      </trkpt>
      <trkpt lat="51.23221043989" lon="4.461991728445">
        <ele>9.2</ele>
        <time>2019-06-05T20:15:48Z</time>
      </trkpt>
      <trkpt lat="51.232293839795" lon="4.462349970851">
        <ele>8.4</ele>
        <time>2019-06-05T20:16:08Z</time>
      </trkpt>
      <trkpt lat="51.232285122619" lon="4.462558931618">
        <ele>6.6</ele>
        <time>2019-06-05T20:16:28Z</time>
      </trkpt>
      <trkpt lat="51.232294761804" lon="4.462849448272">
        <ele>8.6</ele>
        <time>2019-06-05T20:16:43Z</time>
      </trkpt>
      <trkpt lat="51.232164674716" lon="4.462809885704">
        <ele>8.4</ele>
        <time>2019-06-05T20:16:55Z</time>
      </trkpt>
      <trkpt lat="51.232153275332" lon="4.462857327258">
        <ele>8.4</ele>
        <time>2019-06-05T20:16:59Z</time>
      </trkpt>
      <trkpt lat="51.232092171281" lon="4.46317567182">
        <ele>8</ele>
        <time>2019-06-05T20:17:17Z</time>
      </trkpt>
      <trkpt lat="51.231855550244" lon="4.463652769568">
        <ele>5.8</ele>
        <time>2019-06-05T20:17:51Z</time>
      </trkpt>
      <trkpt lat="51.231838786444" lon="4.463648830075">
        <ele>5.8</ele>
        <time>2019-06-05T20:17:54Z</time>
      </trkpt>
      <trkpt lat="51.231724457328" lon="4.463523353032">
        <ele>3.2</ele>
        <time>2019-06-05T20:18:13Z</time>
      </trkpt>
      <trkpt lat="51.231655809567" lon="4.463422351137">
        <ele>3.8</ele>
        <time>2019-06-05T20:18:31Z</time>
      </trkpt>
      <trkpt lat="51.231540809899" lon="4.463362755828">
        <ele>5</ele>
        <time>2019-06-05T20:18:45Z</time>
      </trkpt>
      <trkpt lat="51.231511137973" lon="4.463340292336">
        <ele>6</ele>
        <time>2019-06-05T20:18:49Z</time>
      </trkpt>
      <trkpt lat="51.231389432785" lon="4.463203918823">
        <ele>4.2</ele>
        <time>2019-06-05T20:19:24Z</time>
      </trkpt>
      <trkpt lat="51.231249371236" lon="4.463175336544">
        <ele>4.4</ele>
        <time>2019-06-05T20:19:51Z</time>
      </trkpt>
      <trkpt lat="51.231099419045" lon="4.463182544978">
        <ele>4.8</ele>
        <time>2019-06-05T20:20:11Z</time>
      </trkpt>
      <trkpt lat="51.231055665527" lon="4.46313460051">
        <ele>4</ele>
        <time>2019-06-05T20:20:21Z</time>
      </trkpt>
      <trkpt lat="51.230956759107" lon="4.463122195298">
        <ele>5.4</ele>
        <time>2019-06-05T20:20:39Z</time>
      </trkpt>
      <trkpt lat="51.230920381661" lon="4.46312789499">
        <ele>5.8</ele>
        <time>2019-06-05T20:20:43Z</time>
      </trkpt>
      <trkpt lat="51.230838658136" lon="4.463159075658">
        <ele>7.2</ele>
        <time>2019-06-05T20:20:54Z</time>
      </trkpt>
      <trkpt lat="51.230761628475" lon="4.463184556634">
        <ele>13</ele>
        <time>2019-06-05T20:21:01Z</time>
      </trkpt>
      <trkpt lat="51.230714103102" lon="4.463241218278">
        <ele>16.4</ele>
        <time>2019-06-05T20:21:11Z</time>
      </trkpt>
      <trkpt lat="51.230353513764" lon="4.463310955686">
        <ele>25</ele>
        <time>2019-06-05T20:22:17Z</time>
      </trkpt>
      <trkpt lat="51.230272209334" lon="4.463257479164">
        <ele>18.8</ele>
        <time>2019-06-05T20:22:32Z</time>
      </trkpt>
      <trkpt lat="51.230267850746" lon="4.463195034009">
        <ele>17</ele>
        <time>2019-06-05T20:22:36Z</time>
      </trkpt>
      <trkpt lat="51.230279166311" lon="4.463069473147">
        <ele>13.2</ele>
        <time>2019-06-05T20:22:45Z</time>
      </trkpt>
      <trkpt lat="51.230162071168" lon="4.462622382601">
        <ele>6.4</ele>
        <time>2019-06-05T20:23:17Z</time>
      </trkpt>
      <trkpt lat="51.230132063966" lon="4.462626992646">
        <ele>7.6</ele>
        <time>2019-06-05T20:23:21Z</time>
      </trkpt>
      <trkpt lat="51.230061823644" lon="4.462457510628">
        <ele>7.4</ele>
        <time>2019-06-05T20:23:34Z</time>
      </trkpt>
      <trkpt lat="51.22989787368" lon="4.46179014375">
        <ele>4</ele>
        <time>2019-06-05T20:24:20Z</time>
      </trkpt>
      <trkpt lat="51.229667287611" lon="4.461181114896">
        <ele>5.6</ele>
        <time>2019-06-05T20:25:04Z</time>
      </trkpt>
      <trkpt lat="51.229620768066" lon="4.46115395754">
        <ele>7</ele>
        <time>2019-06-05T20:25:10Z</time>
      </trkpt>
      <trkpt lat="51.229171749683" lon="4.46121514541">
        <ele>5.2</ele>
        <time>2019-06-05T20:25:57Z</time>
      </trkpt>
      <trkpt lat="51.228804957739" lon="4.461300892247">
        <ele>17.4</ele>
        <time>2019-06-05T20:26:36Z</time>
      </trkpt>
      <trkpt lat="51.228530115238" lon="4.461279937497">
        <ele>11.4</ele>
        <time>2019-06-05T20:27:26Z</time>
      </trkpt>
      <trkpt lat="51.228511004506" lon="4.461268370475">
        <ele>11.8</ele>
        <time>2019-06-05T20:27:28Z</time>
      </trkpt>
      <trkpt lat="51.228327273258" lon="4.460788171424">
        <ele>14.4</ele>
        <time>2019-06-05T20:28:19Z</time>
      </trkpt>
      <trkpt lat="51.228218560015" lon="4.460618270311">
        <ele>15.8</ele>
        <time>2019-06-05T20:28:48Z</time>
      </trkpt>
      <trkpt lat="51.228102805976" lon="4.460420038376">
        <ele>8.2</ele>
        <time>2019-06-05T20:29:08Z</time>
      </trkpt>
      <trkpt lat="51.228100291406" lon="4.460390031174">
        <ele>10.4</ele>
        <time>2019-06-05T20:29:10Z</time>
      </trkpt>
      <trkpt lat="51.228121162337" lon="4.460269499452">
        <ele>8.8</ele>
        <time>2019-06-05T20:29:20Z</time>
      </trkpt>
      <trkpt lat="51.228210681029" lon="4.460246113951">
        <ele>9.4</ele>
        <time>2019-06-05T20:29:36Z</time>
      </trkpt>
      <trkpt lat="51.228331967122" lon="4.46003832665">
        <ele>5.6</ele>
        <time>2019-06-05T20:29:56Z</time>
      </trkpt>
      <trkpt lat="51.228346467809" lon="4.459764406158">
        <ele>0</ele>
        <time>2019-06-05T20:30:44Z</time>
      </trkpt>
      <trkpt lat="51.2285467114" lon="4.459304239848">
        <ele>1.6</ele>
        <time>2019-06-05T20:31:21Z</time>
      </trkpt>
      <trkpt lat="51.228535731111" lon="4.45902076399">
        <ele>3.8</ele>
        <time>2019-06-05T20:31:37Z</time>
      </trkpt>
      <trkpt lat="51.228541933717" lon="4.458866034116">
        <ele>3.8</ele>
        <time>2019-06-05T20:31:47Z</time>
      </trkpt>
      <trkpt lat="51.228525840469" lon="4.458774419949">
        <ele>4.2</ele>
        <time>2019-06-05T20:31:53Z</time>
      </trkpt>
      <trkpt lat="51.228519637863" lon="4.45874583767">
        <ele>3.8</ele>
        <time>2019-06-05T20:31:55Z</time>
      </trkpt>
      <trkpt lat="51.228501700597" lon="4.45837535769">
        <ele>2</ele>
        <time>2019-06-05T20:32:16Z</time>
      </trkpt>
      <trkpt lat="51.228508573755" lon="4.458046116658">
        <ele>6.4</ele>
        <time>2019-06-05T20:32:40Z</time>
      </trkpt>
      <trkpt lat="51.228427185506" lon="4.457367098939">
        <ele>10.4</ele>
        <time>2019-06-05T20:33:23Z</time>
      </trkpt>
      <trkpt lat="51.228376055916" lon="4.457377241038">
        <ele>9.2</ele>
        <time>2019-06-05T20:33:26Z</time>
      </trkpt>
      <trkpt lat="51.228270611614" lon="4.457298786454">
        <ele>9.4</ele>
        <time>2019-06-05T20:33:45Z</time>
      </trkpt>
      <trkpt lat="51.228277484772" lon="4.457002486289">
        <ele>6.8</ele>
        <time>2019-06-05T20:34:01Z</time>
      </trkpt>
      <trkpt lat="51.228399106141" lon="4.456951691975">
        <ele>6.4</ele>
        <time>2019-06-05T20:34:18Z</time>
      </trkpt>
      <trkpt lat="51.228847537791" lon="4.456827807493">
        <ele>8.8</ele>
        <time>2019-06-05T20:34:49Z</time>
      </trkpt>
      <trkpt lat="51.228904953806" lon="4.456833339547">
        <ele>9.2</ele>
        <time>2019-06-05T20:34:54Z</time>
      </trkpt>
      <trkpt lat="51.229071921254" lon="4.456789166934">
        <ele>9</ele>
        <time>2019-06-05T20:35:07Z</time>
      </trkpt>
      <trkpt lat="51.229214162097" lon="4.456768044546">
        <ele>7.2</ele>
        <time>2019-06-05T20:35:24Z</time>
      </trkpt>
      <trkpt lat="51.229402419571" lon="4.456775504437">
        <ele>14.8</ele>
        <time>2019-06-05T20:35:48Z</time>
      </trkpt>
      <trkpt lat="51.229666281783" lon="4.456618679088">
        <ele>12.4</ele>
        <time>2019-06-05T20:36:23Z</time>
      </trkpt>
      <trkpt lat="51.229839451837" lon="4.456710963807">
        <ele>7.6</ele>
        <time>2019-06-05T20:36:46Z</time>
      </trkpt>
      <trkpt lat="51.22979896726" lon="4.456879020902">
        <ele>6.2</ele>
        <time>2019-06-05T20:36:56Z</time>
      </trkpt>
      <trkpt lat="51.229818748544" lon="4.457105164564">
        <ele>9</ele>
        <time>2019-06-05T20:37:11Z</time>
      </trkpt>
      <trkpt lat="51.229904411562" lon="4.457753672167">
        <ele>0.4</ele>
        <time>2019-06-05T20:37:53Z</time>
      </trkpt>
      <trkpt lat="51.229715902631" lon="4.457969254635">
        <ele>5.4</ele>
        <time>2019-06-05T20:38:40Z</time>
      </trkpt>
    </trkseg>
  </trk>
</gpx>